Time;durP1;ratioP1;P1;durP2;ratioP2;P2;SDS_P1;SDS_P2;PMS_P1;PMS_P2;Temp;Humidity;BMP_temperature;BMP_pressure;BME280_temperature;BME280_humidity;BME280_pressure;Samples;Min_cycle;Max_cycle;Signal;HPM_P1;HPM_P2
2023/10/02 00:05:07;;;;;;;12.63;10.77;;;;;;;15.11;88.53;101804.44;5035186;28;20615;-67
2023/10/02 00:07:35;;;;;;;9.83;8.83;;;;;;;15.08;88.68;101800.22;5035144;28;20541;-67
2023/10/02 00:10:04;;;;;;;8.10;7.40;;;;;;;15.08;88.77;101799.38;5035341;28;20672;-67
2023/10/02 00:12:32;;;;;;;11.53;8.27;;;;;;;15.07;88.87;101803.06;5034977;28;20270;-67
2023/10/02 00:14:58;;;;;;;12.77;9.67;;;;;;;15.12;88.54;101810.69;5035157;28;20200;-67
2023/10/02 00:17:32;;;;;;;11.10;9.20;;;;;;;15.14;88.54;101812.25;5035719;28;20242;-67
2023/10/02 00:19:59;;;;;;;9.13;8.40;;;;;;;15.10;88.58;101810.88;5035403;28;20196;-67
2023/10/02 00:22:41;;;;;;;14.13;9.60;;;;;;;15.11;88.13;101812.53;5034996;28;20695;-68
2023/10/02 00:25:09;;;;;;;8.93;8.13;;;;;;;15.03;88.24;101813.31;5034056;28;20183;-67
2023/10/02 00:27:37;;;;;;;7.83;7.13;;;;;;;14.97;88.42;101818.47;5034746;28;20184;-67
2023/10/02 00:30:07;;;;;;;8.27;7.50;;;;;;;14.94;88.57;101803.47;5035043;28;20536;-68
2023/10/02 00:32:34;;;;;;;8.03;7.30;;;;;;;14.91;88.56;101803.78;5035096;28;20243;-67
2023/10/02 00:35:03;;;;;;;7.77;7.03;;;;;;;14.93;88.48;101815.25;5034605;28;20188;-67
2023/10/02 00:37:47;;;;;;;9.80;8.83;;;;;;;14.89;88.64;101803.09;5034584;28;20196;-67
2023/10/02 00:40:20;;;;;;;11.83;9.07;;;;;;;14.90;88.69;101801.22;5033212;28;20219;-67
2023/10/02 00:42:56;;;;;;;13.13;7.83;;;;;;;14.89;88.73;101802.25;5034511;28;20226;-68
2023/10/02 00:45:24;;;;;;;9.10;8.07;;;;;;;14.87;89.27;101798.84;5034707;28;20543;-67
2023/10/02 00:47:53;;;;;;;8.23;7.53;;;;;;;14.86;88.80;101798.00;5034354;28;20192;-67
2023/10/02 00:50:24;;;;;;;8.80;8.07;;;;;;;14.87;88.74;101801.53;5034240;28;20179;-68
2023/10/02 00:52:53;;;;;;;12.43;9.10;;;;;;;14.87;88.69;101801.53;5034834;28;20184;-68
2023/10/02 00:55:22;;;;;;;9.50;7.33;;;;;;;14.89;88.61;101800.41;5034422;28;20203;-68
2023/10/02 00:57:51;;;;;;;8.13;7.33;;;;;;;14.94;87.84;101800.75;5034690;28;20538;-68
2023/10/02 01:00:30;;;;;;;9.53;7.27;;;;;;;14.86;88.02;101795.31;5032691;28;20579;-68
2023/10/02 01:02:59;;;;;;;8.63;6.90;;;;;;;14.81;88.25;101792.22;5032863;28;20245;-68
2023/10/02 01:05:42;;;;;;;10.57;7.87;;;;;;;14.90;88.17;101791.31;5034357;28;20687;-68
2023/10/02 01:08:23;;;;;;;11.03;8.70;;;;;;;14.80;88.08;101797.78;5032744;28;20195;-68
2023/10/02 01:10:58;;;;;;;13.00;7.70;;;;;;;14.75;88.22;101800.06;5034341;28;20703;-68
2023/10/02 01:13:28;;;;;;;9.17;8.37;;;;;;;14.70;88.34;101792.44;5034092;28;20190;-68
2023/10/02 01:15:56;;;;;;;7.83;7.10;;;;;;;14.71;88.52;101794.16;5033759;28;20192;-68
2023/10/02 01:18:27;;;;;;;7.80;7.10;;;;;;;14.70;88.70;101788.91;5033767;28;20192;-68
2023/10/02 01:20:56;;;;;;;7.50;6.80;;;;;;;14.72;88.70;101793.16;5033880;28;20770;-68
2023/10/02 01:23:26;;;;;;;6.73;6.20;;;;;;;14.72;88.60;101790.47;5032416;28;20200;-68
2023/10/02 01:25:57;;;;;;;8.00;7.23;;;;;;;14.76;88.63;101794.53;5032404;28;20196;-68
2023/10/02 01:28:26;;;;;;;8.83;7.93;;;;;;;14.74;88.47;101790.28;5033631;28;20180;-68
2023/10/02 01:30:55;;;;;;;7.00;6.43;;;;;;;14.73;88.85;101793.97;5033528;28;20599;-68
2023/10/02 01:33:22;;;;;;;7.73;7.23;;;;;;;14.70;88.79;101787.06;5032561;28;20672;-68
2023/10/02 01:35:56;;;;;;;12.50;7.40;;;;;;;14.66;88.59;101787.53;5033365;28;20556;-68
2023/10/02 01:38:31;;;;;;;8.63;6.70;;;;;;;14.64;88.88;101780.44;5032218;28;20758;-68
2023/10/02 01:41:04;;;;;;;7.23;6.73;;;;;;;14.61;88.72;101785.28;5033333;28;20215;-68
2023/10/02 01:43:44;;;;;;;7.53;7.13;;;;;;;14.58;88.95;101781.06;5033711;28;20263;-67
2023/10/02 01:46:17;;;;;;;8.83;8.07;;;;;;;14.54;88.76;101784.22;5033679;28;20179;-67
2023/10/02 01:48:44;;;;;;;9.67;7.53;;;;;;;14.54;88.87;101789.59;5033433;28;20175;-67
2023/10/02 01:51:16;;;;;;;11.97;7.90;;;;;;;14.53;88.83;101783.34;5033289;28;20200;-68
2023/10/02 01:53:43;;;;;;;8.13;6.93;;;;;;;14.55;89.08;101784.03;5032648;28;20216;-67
2023/10/02 01:56:11;;;;;;;6.73;6.30;;;;;;;14.53;89.02;101782.50;5032561;28;20192;-67
2023/10/02 01:58:45;;;;;;;6.87;5.87;;;;;;;14.51;88.87;101784.53;5032267;28;20196;-67
2023/10/02 02:01:12;;;;;;;9.13;7.73;;;;;;;14.68;88.55;101785.53;5031874;28;20256;-68
2023/10/02 02:03:41;;;;;;;8.63;7.90;;;;;;;14.57;88.26;101779.38;5032156;28;20291;-68
2023/10/02 02:06:08;;;;;;;6.57;6.00;;;;;;;14.69;87.72;101774.59;5033887;28;20196;-68
2023/10/02 02:08:43;;;;;;;7.13;6.73;;;;;;;14.47;87.93;101773.19;5033128;28;20679;-68
2023/10/02 02:11:17;;;;;;;7.07;6.60;;;;;;;14.41;88.00;101767.56;5031839;28;20702;-68
2023/10/02 02:13:44;;;;;;;11.43;7.50;;;;;;;14.40;88.28;101765.88;5033496;28;20643;-68
2023/10/02 02:16:16;;;;;;;7.17;6.73;;;;;;;14.35;88.67;101771.72;5033622;28;20176;-68
2023/10/02 02:18:45;;;;;;;8.67;7.50;;;;;;;14.34;88.25;101775.34;5033631;28;20182;-68
2023/10/02 02:21:16;;;;;;;9.27;8.57;;;;;;;14.42;88.66;101770.13;5031636;28;20215;-68
2023/10/02 02:23:45;;;;;;;8.83;7.57;;;;;;;14.38;88.81;101775.97;5033037;28;20176;-68
2023/10/02 02:26:21;;;;;;;13.07;8.33;;;;;;;14.38;88.90;101768.75;5033001;28;20184;-68
2023/10/02 02:28:51;;;;;;;7.40;6.80;;;;;;;14.38;88.73;101768.75;5033263;28;20670;-68
2023/10/02 02:31:30;;;;;;;7.70;7.03;;;;;;;14.37;89.09;101767.03;5033046;28;20200;-68
2023/10/02 02:34:04;;;;;;;5.43;5.10;;;;;;;14.59;87.73;101769.31;5032938;28;20184;-67
2023/10/02 02:36:35;;;;;;;8.00;7.30;;;;;;;14.60;87.95;101775.50;5033443;28;20606;-67
2023/10/02 02:39:15;;;;;;;6.00;5.80;;;;;;;14.56;88.17;101769.59;5032897;28;20180;-67
2023/10/02 02:41:44;;;;;;;5.80;5.50;;;;;;;14.36;88.70;101765.34;5033039;28;20238;-67
2023/10/02 02:44:36;;;;;;;6.47;5.93;;;;;;;14.39;89.30;101774.94;5032835;28;20184;-67
2023/10/02 02:47:09;;;;;;;8.50;7.03;;;;;;;14.36;89.20;101764.47;5034173;28;20172;-67
2023/10/02 02:49:58;;;;;;;7.13;6.60;;;;;;;14.37;89.41;101764.34;5036869;28;20176;-67
2023/10/02 02:52:32;;;;;;;9.43;8.47;;;;;;;14.34;89.08;101767.28;5036520;28;20699;-68
2023/10/02 02:55:12;;;;;;;13.63;8.80;;;;;;;14.27;89.48;101768.88;5036533;28;20184;-68
2023/10/02 02:57:45;;;;;;;8.40;7.77;;;;;;;14.22;89.90;101776.56;5036744;28;20175;-68
2023/10/02 03:00:31;;;;;;;13.17;9.10;;;;;;;14.39;89.77;101766.88;5036686;28;20172;-68
2023/10/02 03:03:00;;;;;;;11.23;7.57;;;;;;;14.31;89.68;101758.66;5035963;28;20191;-67
2023/10/02 03:05:43;;;;;;;7.70;7.10;;;;;;;14.25;89.87;101762.84;5036619;28;20199;-67
2023/10/02 03:08:12;;;;;;;14.10;7.63;;;;;;;14.29;90.25;101756.16;5036598;28;20579;-67
2023/10/02 03:10:40;;;;;;;10.13;7.87;;;;;;;14.33;88.77;101757.53;5036151;28;20204;-68
2023/10/02 03:13:15;;;;;;;11.20;9.23;;;;;;;14.38;88.63;101763.34;5036145;28;20190;-68
2023/10/02 03:15:47;;;;;;;8.73;8.03;;;;;;;14.36;88.36;101759.09;5036323;28;20200;-68
2023/10/02 03:18:30;;;;;;;8.20;7.53;;;;;;;14.15;88.89;101754.81;5036106;28;20187;-67
2023/10/02 03:21:14;;;;;;;14.00;8.97;;;;;;;14.14;89.33;101752.25;5036302;28;20223;-68
2023/10/02 03:23:42;;;;;;;8.67;7.83;;;;;;;14.07;89.90;101749.34;5036288;28;20200;-68
2023/10/02 03:26:26;;;;;;;15.73;8.70;;;;;;;14.04;89.62;101746.94;5035821;28;20192;-68
2023/10/02 03:29:00;;;;;;;7.70;7.00;;;;;;;14.06;89.97;101742.25;5036141;28;20191;-68
2023/10/02 03:31:43;;;;;;;8.50;7.70;;;;;;;14.09;90.44;101751.84;5036346;28;20210;-68
2023/10/02 03:34:30;;;;;;;10.97;7.50;;;;;;;14.11;90.61;101741.81;5036078;28;20226;-68
2023/10/02 03:37:00;;;;;;;7.57;6.87;;;;;;;14.15;90.25;101749.44;5036302;28;20215;-68
2023/10/02 03:42:21;;;;;;;7.40;6.70;;;;;;;14.11;90.71;101734.59;5035543;28;20586;-68
2023/10/02 03:44:54;;;;;;;12.17;7.83;;;;;;;14.27;90.26;101735.75;5035914;28;20670;-68
2023/10/02 03:47:22;;;;;;;15.97;8.20;;;;;;;14.40;88.14;101738.97;5035869;28;20187;-67
2023/10/02 03:49:50;;;;;;;12.20;8.10;;;;;;;14.17;88.59;101733.16;5035483;28;20332;-67
2023/10/02 03:52:17;;;;;;;9.13;7.90;;;;;;;14.11;89.13;101737.28;5035399;28;20213;-67
2023/10/02 03:54:45;;;;;;;12.73;7.90;;;;;;;14.11;89.16;101728.38;5035394;28;20233;-67
2023/10/02 04:00:12;;;;;;;8.20;7.60;;;;;;;14.05;89.52;101728.94;5035532;28;20187;-67
2023/10/02 04:02:43;;;;;;;8.80;7.87;;;;;;;14.00;89.75;101726.72;5035251;28;20199;-67
2023/10/02 04:05:10;;;;;;;11.47;8.53;;;;;;;14.11;89.70;101720.28;5035540;28;20215;-67
2023/10/02 04:07:37;;;;;;;11.23;9.57;;;;;;;14.05;89.81;101715.50;5035148;28;20238;-67
2023/10/02 04:10:06;;;;;;;14.53;8.37;;;;;;;14.23;89.50;101719.09;5035376;28;20188;-67
2023/10/02 04:12:50;;;;;;;6.13;5.67;;;;;;;14.26;89.43;101715.28;5035020;28;20218;-67
2023/10/02 04:15:17;;;;;;;5.93;5.60;;;;;;;14.19;89.52;101715.84;5035129;28;20210;-67
2023/10/02 04:17:49;;;;;;;9.47;7.83;;;;;;;14.22;89.87;101713.84;5034982;28;20740;-67
2023/10/02 04:20:28;;;;;;;10.03;8.10;;;;;;;14.08;90.21;101707.16;5034819;28;20579;-67
2023/10/02 04:23:18;;;;;;;8.63;7.93;;;;;;;14.03;90.61;101709.44;5034893;28;20184;-67
2023/10/02 04:25:44;;;;;;;8.87;7.80;;;;;;;14.02;90.40;101697.00;5035497;28;20712;-67
2023/10/02 04:28:12;;;;;;;10.97;7.53;;;;;;;14.03;91.21;101699.53;5034696;28;20214;-67
2023/10/02 04:30:38;;;;;;;6.33;5.97;;;;;;;14.03;91.51;101696.84;5035152;28;20200;-68
2023/10/02 04:33:08;;;;;;;7.07;6.50;;;;;;;14.03;91.17;101696.00;5034904;28;20190;-68
2023/10/02 04:35:44;;;;;;;5.97;5.77;;;;;;;14.03;91.35;101699.53;5034804;28;20608;-68
2023/10/02 04:38:14;;;;;;;6.57;6.23;;;;;;;14.04;91.24;101709.31;5034855;28;20199;-68
2023/10/02 04:40:49;;;;;;;7.10;6.67;;;;;;;14.04;91.31;101701.25;5034935;28;20243;-68
2023/10/02 04:43:23;;;;;;;7.37;6.67;;;;;;;14.06;91.31;101709.13;5034766;28;20682;-67
2023/10/02 04:45:53;;;;;;;6.60;6.20;;;;;;;14.09;91.62;101701.59;5035001;28;20187;-67
2023/10/02 04:48:27;;;;;;;8.27;7.17;;;;;;;14.15;90.91;101702.84;5034912;28;20266;-67
2023/10/02 04:50:56;;;;;;;8.17;7.50;;;;;;;14.12;90.74;101703.16;5034743;28;20235;-67
2023/10/02 04:53:23;;;;;;;7.90;7.40;;;;;;;14.15;90.33;101700.16;5034578;28;20181;-67
2023/10/02 04:56:07;;;;;;;8.33;7.43;;;;;;;14.35;89.35;101704.44;5034221;28;20192;-67
2023/10/02 04:58:39;;;;;;;7.57;6.97;;;;;;;14.19;89.29;101707.78;5034458;28;20180;-67
2023/10/02 05:03:49;;;;;;;13.67;9.23;;;;;;;14.26;89.04;101709.88;5034111;28;20188;-68
2023/10/02 05:06:42;;;;;;;15.57;9.70;;;;;;;14.05;89.74;101704.75;5034306;28;20180;-68
2023/10/02 05:11:52;;;;;;;15.40;10.23;;;;;;;13.99;90.71;101708.06;5034298;28;20749;-67
2023/10/02 05:14:26;;;;;;;9.60;7.83;;;;;;;13.94;90.93;101711.19;5034090;28;20195;-67
2023/10/02 05:16:56;;;;;;;12.10;8.40;;;;;;;13.93;91.49;101712.19;5034180;28;20176;-67
2023/10/02 05:19:56;;;;;;;19.03;9.70;;;;;;;14.06;91.14;101709.13;5033828;28;20183;-67
2023/10/02 05:22:13;;;;;;;11.00;8.77;;;;;;;14.07;91.01;101714.38;5033531;28;20306;-67
2023/10/02 05:24:41;;;;;;;13.03;9.13;;;;;;;13.98;91.17;101717.09;5034024;28;20184;-68
2023/10/02 05:27:27;;;;;;;11.50;8.33;;;;;;;13.91;90.91;101708.81;5033943;28;20218;-68
2023/10/02 05:29:54;;;;;;;7.23;6.83;;;;;;;13.91;91.68;101716.88;5033939;28;20180;-68
2023/10/02 05:32:23;;;;;;;7.70;7.13;;;;;;;13.92;91.60;101717.72;5033523;28;20283;-68
2023/10/02 05:37:39;;;;;;;8.87;8.07;;;;;;;13.95;92.09;101722.78;5033567;28;20176;-68
2023/10/02 05:45:39;;;;;;;13.43;8.80;;;;;;;14.01;91.02;101722.19;5033720;28;20237;-68
2023/10/02 05:48:14;;;;;;;14.50;8.57;;;;;;;13.91;91.33;101733.00;5033671;28;20180;-68
2023/10/02 05:50:47;;;;;;;8.87;7.90;;;;;;;13.90;91.44;101731.31;5033515;28;20722;-68
2023/10/02 05:53:15;;;;;;;11.00;7.93;;;;;;;13.92;91.38;101740.06;5033342;28;20187;-68
2023/10/02 05:58:31;;;;;;;9.13;8.20;;;;;;;13.96;91.83;101741.44;5033551;28;20180;-68
2023/10/02 06:01:06;;;;;;;12.30;7.67;;;;;;;13.96;91.59;101736.06;5033060;28;20222;-68
2023/10/02 06:03:35;;;;;;;11.20;7.90;;;;;;;14.07;91.84;101743.09;5033476;28;20176;-68
2023/10/02 06:06:15;;;;;;;12.93;8.10;;;;;;;14.19;90.16;101741.91;5033361;28;20188;-68
2023/10/02 06:08:54;;;;;;;12.63;7.87;;;;;;;14.10;89.78;101743.66;5033351;28;20180;-68
2023/10/02 06:11:25;;;;;;;12.07;8.30;;;;;;;14.08;89.69;101750.19;5033084;28;20208;-68
2023/10/02 06:13:54;;;;;;;8.97;8.07;;;;;;;13.97;90.41;101745.84;5033251;28;20183;-68
2023/10/02 06:16:24;;;;;;;9.77;8.03;;;;;;;14.03;90.33;101747.09;5033246;28;20180;-68
2023/10/02 06:19:00;;;;;;;12.37;8.10;;;;;;;13.96;90.89;101741.44;5033578;28;20202;-68
2023/10/02 06:21:30;;;;;;;8.60;7.87;;;;;;;13.93;90.83;101738.22;5033365;28;20235;-68
2023/10/02 06:23:58;;;;;;;7.90;7.10;;;;;;;13.97;90.92;101742.28;5037068;28;20195;-68
2023/10/02 06:26:46;;;;;;;9.93;7.03;;;;;;;14.00;91.30;101744.72;5037329;28;20551;-68
2023/10/02 06:29:24;;;;;;;7.17;6.47;;;;;;;14.01;91.29;101733.78;5037291;28;20675;-68
2023/10/02 06:32:02;;;;;;;8.33;7.53;;;;;;;14.06;91.50;101736.03;5037083;28;20221;-68
2023/10/02 06:34:37;;;;;;;9.17;7.53;;;;;;;14.11;91.52;101734.59;5036963;28;20207;-68
2023/10/02 06:37:11;;;;;;;10.90;8.27;;;;;;;14.19;91.64;101741.91;5037139;28;20176;-68
2023/10/02 06:39:40;;;;;;;22.50;9.80;;;;;;;14.27;91.78;101741.16;5036851;28;20527;-68
2023/10/02 06:42:08;;;;;;;11.77;9.27;;;;;;;14.41;91.72;101746.06;5036612;28;20266;-68
2023/10/02 06:44:52;;;;;;;12.67;9.43;;;;;;;14.71;90.32;101751.09;5036940;28;20188;-68
2023/10/02 06:47:29;;;;;;;19.17;8.93;;;;;;;14.82;89.36;101750.00;5036637;28;20180;-68
2023/10/02 06:50:03;;;;;;;17.40;9.43;;;;;;;14.76;89.98;101750.63;5036649;28;20179;-68
2023/10/02 06:52:32;;;;;;;13.43;8.53;;;;;;;14.64;90.43;101741.91;5036493;28;20225;-68
2023/10/02 06:55:01;;;;;;;12.20;9.03;;;;;;;14.63;91.08;101751.00;5036977;28;20547;-68
2023/10/02 06:57:28;;;;;;;9.40;8.37;;;;;;;14.70;91.72;101748.53;5036915;28;20184;-68
2023/10/02 06:59:55;;;;;;;12.97;9.80;;;;;;;15.03;91.46;101743.28;5036700;28;20263;-68
2023/10/02 07:02:26;;;;;;;17.23;9.83;;;;;;;15.12;91.40;101741.50;5036311;28;20211;-68
2023/10/02 07:04:55;;;;;;;15.37;9.40;;;;;;;15.09;91.90;101747.22;5036947;28;20172;-68
2023/10/02 07:07:30;;;;;;;15.47;9.67;;;;;;;15.17;92.41;101751.81;5036583;28;20175;-68
2023/10/02 07:10:07;;;;;;;16.47;10.70;;;;;;;15.17;92.45;101754.50;5036829;28;20176;-68
2023/10/02 07:12:41;;;;;;;13.60;9.20;;;;;;;15.14;92.28;101744.91;5036412;28;20219;-68
2023/10/02 07:15:12;;;;;;;21.20;9.00;;;;;;;15.20;93.11;101744.25;5035216;28;20196;-68
2023/10/02 07:17:48;;;;;;;13.47;9.17;;;;;;;15.52;92.71;101754.47;5035172;28;20191;-68
2023/10/02 07:20:20;;;;;;;11.37;9.50;;;;;;;15.59;92.67;101749.28;5035153;28;20217;-68
2023/10/02 07:22:48;;;;;;;12.03;10.63;;;;;;;15.68;92.96;101745.63;5034848;28;20558;-68
2023/10/02 07:25:20;;;;;;;15.70;10.40;;;;;;;15.74;93.07;101747.69;5034807;28;20192;-68
2023/10/02 07:27:48;;;;;;;17.47;10.03;;;;;;;15.76;93.33;101751.06;5033590;28;20192;-68
2023/10/02 07:30:25;;;;;;;18.63;11.60;;;;;;;15.83;93.59;101747.56;5034709;28;20184;-68
2023/10/02 07:32:53;;;;;;;16.37;10.73;;;;;;;15.94;93.52;101743.75;5033100;28;20188;-68
2023/10/02 07:35:23;;;;;;;27.70;11.43;;;;;;;15.99;93.77;101742.25;5034673;28;20192;-68
2023/10/02 07:37:59;;;;;;;17.90;11.77;;;;;;;16.11;93.87;101742.81;5034873;28;20226;-68
2023/10/02 07:40:48;;;;;;;20.93;11.27;;;;;;;16.19;93.82;101742.00;5034805;28;20199;-68
2023/10/02 07:43:19;;;;;;;17.93;11.30;;;;;;;16.26;93.47;101737.63;5034071;28;20549;-68
2023/10/02 07:46:06;;;;;;;20.10;11.63;;;;;;;16.35;93.52;101739.34;5034755;28;20222;-68
2023/10/02 07:48:36;;;;;;;21.17;10.33;;;;;;;16.48;92.98;101741.56;5033189;28;20591;-68
2023/10/02 07:51:06;;;;;;;21.30;10.77;;;;;;;16.62;92.08;101746.34;5034775;28;20208;-68
2023/10/02 07:53:39;;;;;;;17.73;10.83;;;;;;;16.69;91.91;101750.06;5034695;28;20176;-68
2023/10/02 07:56:14;;;;;;;16.43;10.40;;;;;;;16.78;91.50;101747.22;5034321;28;20207;-68
2023/10/02 07:58:41;;;;;;;25.90;11.40;;;;;;;17.00;89.13;101748.44;5034550;28;20199;-68
2023/10/02 08:01:11;;;;;;;14.77;9.97;;;;;;;17.12;86.95;101736.25;5034440;28;20211;-68
2023/10/02 08:03:49;;;;;;;13.83;9.87;;;;;;;17.55;83.38;101734.19;5034707;28;20172;-68
2023/10/02 08:06:21;;;;;;;17.90;10.20;;;;;;;17.59;83.60;101741.81;5034183;28;20190;-68
2023/10/02 08:11:34;;;;;;;22.03;10.47;;;;;;;17.93;81.40;101728.00;5034053;28;20237;-68
2023/10/02 08:14:03;;;;;;;16.70;9.70;;;;;;;17.86;81.78;101727.03;4998131;28;1039719;-68
2023/10/02 08:16:33;;;;;;;14.27;9.63;;;;;;;18.16;79.98;101731.63;5035539;28;20191;-68
2023/10/02 08:19:01;;;;;;;26.60;10.20;;;;;;;18.33;79.81;101726.13;5035136;28;20656;-68
2023/10/02 08:21:36;;;;;;;21.07;9.80;;;;;;;18.41;79.80;101731.50;5034612;28;20203;-68
2023/10/02 08:24:03;;;;;;;23.93;9.67;;;;;;;18.68;77.64;101731.84;5035394;28;20604;-68
2023/10/02 08:26:40;;;;;;;15.80;9.47;;;;;;;18.80;78.23;101737.69;5035290;28;20713;-68
2023/10/02 08:29:08;;;;;;;15.47;8.93;;;;;;;18.67;79.38;101729.34;5035036;28;20184;-68
2023/10/02 08:31:42;;;;;;;15.10;9.47;;;;;;;18.73;80.15;101731.31;5034782;28;20577;-68
2023/10/02 08:34:12;;;;;;;11.13;8.17;;;;;;;18.78;80.20;101736.19;5034642;28;20190;-68
2023/10/02 08:36:41;;;;;;;16.30;9.23;;;;;;;18.89;79.38;101733.03;5034624;28;20251;-68
2023/10/02 08:39:08;;;;;;;13.50;9.57;;;;;;;18.91;80.33;101734.56;5035081;28;20249;-68
2023/10/02 08:41:46;;;;;;;18.07;9.90;;;;;;;19.18;78.49;101731.28;5034385;28;20261;-68
2023/10/02 08:44:13;;;;;;;22.20;10.63;;;;;;;19.38;77.61;101733.47;5034162;28;20184;-68
2023/10/02 08:46:43;;;;;;;16.70;9.63;;;;;;;19.36;76.85;101727.38;5034610;28;20553;-68
2023/10/02 08:49:13;;;;;;;17.07;9.87;;;;;;;19.38;77.02;101733.47;5034684;28;20172;-68
2023/10/02 08:51:48;;;;;;;13.00;8.87;;;;;;;19.53;77.03;101724.34;5034781;28;20616;-68
2023/10/02 08:54:15;;;;;;;19.70;9.97;;;;;;;19.65;76.33;101732.06;5034851;28;20186;-68
2023/10/02 08:56:48;;;;;;;20.30;10.03;;;;;;;19.69;76.04;101720.59;5034518;28;20192;-68
2023/10/02 08:59:26;;;;;;;12.77;9.13;;;;;;;19.73;76.84;101711.06;5034507;28;20230;-68
2023/10/02 09:02:16;;;;;;;20.23;10.53;;;;;;;20.04;75.46;101711.72;5034347;28;20302;-69
2023/10/02 09:04:53;;;;;;;13.87;9.60;;;;;;;20.41;73.05;101720.75;5034603;28;20590;-68
2023/10/02 09:07:24;;;;;;;13.50;9.93;;;;;;;20.45;72.01;101722.88;5034639;28;20176;-66
2023/10/02 09:10:18;;;;;;;21.73;11.63;;;;;;;20.59;70.53;101714.88;5034038;28;20168;-66
2023/10/02 09:12:51;;;;;;;17.80;9.30;;;;;;;20.60;72.22;101714.69;5034247;28;20578;-66
2023/10/02 09:15:30;;;;;;;13.17;9.30;;;;;;;21.01;67.48;101705.88;5033956;28;20191;-66
2023/10/02 09:18:17;;;;;;;13.07;9.83;;;;;;;20.95;68.99;101715.66;5034212;28;20195;-69
2023/10/02 09:20:53;;;;;;;19.07;10.80;;;;;;;21.12;67.90;101714.38;5034079;28;20227;-69
2023/10/02 09:23:24;;;;;;;14.00;9.80;;;;;;;21.73;64.41;101718.16;5033995;28;20227;-68
2023/10/02 09:26:16;;;;;;;18.07;10.37;;;;;;;21.61;63.29;101719.75;5033914;28;20190;-68
2023/10/02 09:28:47;;;;;;;14.07;9.73;;;;;;;21.49;63.84;101710.47;5033991;28;20190;-68
2023/10/02 09:31:15;;;;;;;16.27;9.63;;;;;;;21.56;63.64;101714.06;5033795;28;20218;-68
2023/10/02 09:33:45;;;;;;;13.63;9.87;;;;;;;21.50;64.83;101714.03;5033882;28;20523;-68
2023/10/02 09:36:36;;;;;;;13.33;9.53;;;;;;;21.52;66.13;101715.50;5033780;28;20176;-68
2023/10/02 09:39:36;;;;;;;14.73;9.33;;;;;;;21.95;62.07;101704.47;5033558;28;20191;-68
2023/10/02 09:42:06;;;;;;;16.00;9.87;;;;;;;21.99;62.55;101700.31;5033391;28;20219;-68
2023/10/02 09:44:42;;;;;;;16.87;10.03;;;;;;;21.98;62.86;101702.19;5033716;28;20519;-68
2023/10/02 09:47:09;;;;;;;14.67;10.13;;;;;;;21.93;63.28;101701.97;5033588;28;20606;-68
2023/10/02 09:49:48;;;;;;;21.93;10.13;;;;;;;22.34;60.40;101699.19;5033318;28;20222;-68
2023/10/02 09:52:23;;;;;;;11.98;9.80;;;;;;;22.32;63.40;101691.19;5033278;28;20248;-69
2023/10/02 09:55:15;;;;;;;20.33;10.50;;;;;;;22.37;62.64;101687.03;5033823;28;20206;-68
2023/10/02 09:57:51;;;;;;;17.85;10.07;;;;;;;22.37;61.39;101690.59;5033226;28;20230;-68
2023/10/02 10:03:24;;;;;;;29.20;10.93;;;;;;;22.24;60.70;101679.66;5033683;28;20663;-68
2023/10/02 10:06:05;;;;;;;18.47;9.50;;;;;;;22.16;62.41;101674.38;5033144;28;20664;-68
2023/10/02 10:11:42;;;;;;;18.65;9.88;;;;;;;22.44;59.48;101661.50;5033606;28;20208;-68
2023/10/02 10:14:41;;;;;;;20.75;11.25;;;;;;;22.29;61.52;101668.97;5033068;28;20274;-68
2023/10/02 10:17:49;;;;;;;18.30;10.90;;;;;;;22.50;60.21;101668.81;5033576;28;20523;-68
2023/10/02 10:20:22;;;;;;;13.65;10.38;;;;;;;22.42;61.88;101666.28;5032255;28;20203;-68
2023/10/02 10:22:55;;;;;;;14.68;9.93;;;;;;;22.61;61.28;101665.50;5033704;28;20195;-69
2023/10/02 10:27:54;;;;;;;16.20;9.75;;;;;;;22.76;61.32;101671.63;5033468;28;20200;-68
2023/10/02 10:30:24;;;;;;;16.83;10.32;;;;;;;23.09;60.95;101673.50;5033395;28;20180;-69
2023/10/02 10:35:55;;;;;;;23.85;10.27;;;;;;;22.84;59.92;101656.94;5033217;28;20544;-69
2023/10/02 10:38:22;;;;;;;16.70;9.55;;;;;;;22.84;61.43;101653.38;5032911;28;20172;-69
2023/10/02 10:41:27;;;;;;;25.50;10.43;;;;;;;22.97;59.63;101656.94;5032767;28;20212;-69
2023/10/02 10:43:56;;;;;;;13.50;9.98;;;;;;;23.08;61.47;101644.56;5032798;28;20218;-69
2023/10/02 10:46:29;;;;;;;15.73;10.40;;;;;;;23.25;60.95;101645.81;5033132;28;20184;-69
2023/10/02 10:49:10;;;;;;;17.55;10.70;;;;;;;23.27;57.07;101651.88;5033378;28;20259;-69
2023/10/02 10:51:39;;;;;;;19.38;9.88;;;;;;;23.18;58.79;101655.88;5032875;28;20204;-69
2023/10/02 10:54:25;;;;;;;14.52;8.57;;;;;;;23.20;57.82;101648.31;5032784;28;20595;-69
2023/10/02 10:57:21;;;;;;;15.25;10.02;;;;;;;23.11;57.31;101641.41;5033020;28;20207;-69
2023/10/02 11:00:23;;;;;;;14.85;9.38;;;;;;;23.18;59.70;101644.97;5032959;28;20176;-69
2023/10/02 11:03:01;;;;;;;15.43;10.38;;;;;;;23.31;57.78;101634.03;5032846;28;20265;-68
2023/10/02 11:05:33;;;;;;;17.42;10.25;;;;;;;23.15;58.84;101639.94;5032974;28;20179;-68
2023/10/02 11:08:23;;;;;;;16.08;10.23;;;;;;;23.22;58.22;101638.03;5033641;28;20692;-68
2023/10/02 11:11:01;;;;;;;13.25;10.13;;;;;;;23.21;58.34;101650.00;5036696;28;20225;-68
2023/10/02 11:13:50;;;;;;;16.13;9.13;;;;;;;23.20;59.61;101643.72;5036448;28;20238;-68
2023/10/02 11:16:34;;;;;;;26.45;10.82;;;;;;;23.68;57.40;101643.38;5035662;28;20525;-68
2023/10/02 11:19:21;;;;;;;17.98;10.45;;;;;;;23.72;57.06;101641.09;5036274;28;20206;-68
2023/10/02 11:22:16;;;;;;;16.95;10.07;;;;;;;23.58;57.98;101640.28;5036194;28;20208;-68
2023/10/02 11:24:44;;;;;;;14.07;10.27;;;;;;;23.71;58.40;101640.25;5036302;28;20575;-68
2023/10/02 11:27:18;;;;;;;18.10;11.10;;;;;;;23.81;58.69;101634.31;5036530;28;20180;-68
2023/10/02 11:30:00;;;;;;;17.60;10.73;;;;;;;23.76;56.79;101624.06;5034719;28;20219;-68
2023/10/02 11:32:53;;;;;;;15.52;10.15;;;;;;;23.64;57.79;101632.06;5036426;28;20208;-69
2023/10/02 11:35:21;;;;;;;14.45;10.30;;;;;;;23.65;58.07;101638.38;5036337;28;20227;-69
2023/10/02 11:37:48;;;;;;;17.40;10.65;;;;;;;23.70;58.99;101638.56;5035731;28;20237;-69
2023/10/02 11:40:16;;;;;;;24.13;10.23;;;;;;;23.52;59.76;101636.53;5036034;28;20230;-69
2023/10/02 11:42:42;;;;;;;14.50;9.23;;;;;;;23.63;58.88;101638.59;5035616;28;20211;-69
2023/10/02 11:45:10;;;;;;;11.05;9.02;;;;;;;23.71;59.84;101636.69;5035627;28;20188;-69
2023/10/02 11:47:37;;;;;;;18.70;9.63;;;;;;;23.98;58.29;101635.50;5036125;28;20545;-69
2023/10/02 11:50:05;;;;;;;16.15;10.13;;;;;;;24.35;57.55;101642.91;5035775;28;20208;-69
2023/10/02 11:52:32;;;;;;;15.50;9.50;;;;;;;24.31;56.12;101636.22;5036277;28;20548;-68
2023/10/02 11:54:58;;;;;;;12.73;9.68;;;;;;;24.31;58.21;101636.22;5035463;28;20215;-68
2023/10/02 11:57:25;;;;;;;14.50;10.50;;;;;;;24.35;57.01;101629.25;5035421;28;20203;-68
2023/10/02 11:59:51;;;;;;;12.85;9.88;;;;;;;24.27;55.14;101629.50;5035669;28;20176;-68
2023/10/02 12:02:18;;;;;;;13.75;9.65;;;;;;;23.97;55.85;101620.19;5035183;28;20203;-68
2023/10/02 12:04:45;;;;;;;14.13;10.20;;;;;;;23.82;56.47;101625.06;5035399;28;20215;-68
2023/10/02 12:07:16;;;;;;;18.00;10.07;;;;;;;23.87;57.11;101619.78;5035436;28;20561;-68
2023/10/02 12:09:47;;;;;;;13.55;9.13;;;;;;;23.86;57.15;101618.13;5035483;28;20180;-68
2023/10/02 12:12:14;;;;;;;22.65;9.65;;;;;;;23.83;59.60;101610.38;5035896;28;20548;-69
2023/10/02 12:14:42;;;;;;;32.17;10.95;;;;;;;23.79;60.10;101612.69;5034936;28;20201;-68
2023/10/02 12:17:11;;;;;;;17.52;9.15;;;;;;;23.61;60.05;101607.09;5035018;28;20616;-68
2023/10/02 12:19:40;;;;;;;16.00;10.60;;;;;;;23.91;58.00;101607.38;5034006;28;20198;-68
2023/10/02 12:22:09;;;;;;;12.52;10.48;;;;;;;23.71;58.82;101602.03;5035637;28;20299;-68
2023/10/02 12:24:37;;;;;;;14.05;10.07;;;;;;;23.74;60.96;101596.13;5034879;28;20208;-68
2023/10/02 12:27:04;;;;;;;12.85;9.57;;;;;;;23.82;58.84;101595.03;5035093;28;20207;-68